createdAt,value
2018-07-04T00:00:38.435Z,5.53
2018-07-04T00:03:11.351Z,6.70
2018-07-04T00:05:44.306Z,5.83
2018-07-04T00:08:17.282Z,6.25
2018-07-04T00:10:50.293Z,6.72
2018-07-04T00:13:23.155Z,6.83
2018-07-04T00:15:55.953Z,6.35
2018-07-04T00:18:28.834Z,6.65
2018-07-04T00:21:01.839Z,7.90
2018-07-04T00:23:34.761Z,7.22
2018-07-04T00:26:07.582Z,6.40
2018-07-04T00:28:41.070Z,6.72
2018-07-04T00:31:13.799Z,7.00
2018-07-04T00:33:46.843Z,7.00
2018-07-04T00:36:19.839Z,7.70
2018-07-04T00:38:52.749Z,8.65
2018-07-04T00:41:25.802Z,6.87
2018-07-04T00:43:58.707Z,7.35
2018-07-04T00:46:31.665Z,6.87
2018-07-04T00:49:05.345Z,6.70
2018-07-04T00:51:38.262Z,6.83
2018-07-04T00:54:11.303Z,7.12
2018-07-04T00:56:44.306Z,7.00
2018-07-04T00:59:17.131Z,7.35
2018-07-04T01:01:49.986Z,6.40
2018-07-04T01:04:22.869Z,6.85
2018-07-04T01:06:55.907Z,6.25
2018-07-04T01:09:28.851Z,7.62
2018-07-04T01:12:01.780Z,7.15
2018-07-04T01:14:34.786Z,7.33
2018-07-04T01:17:08.486Z,6.62
2018-07-04T01:19:41.508Z,7.37
2018-07-04T01:22:14.443Z,7.95
2018-07-04T01:24:48.053Z,7.92
2018-07-04T01:27:21.083Z,8.00
2018-07-04T01:29:54.089Z,7.50
2018-07-04T01:32:27.056Z,6.55
2018-07-04T01:35:00.136Z,6.75
2018-07-04T01:37:33.146Z,6.87
2018-07-04T01:40:06.027Z,7.60
2018-07-04T01:42:39.060Z,7.50
2018-07-04T01:45:12.144Z,6.47
2018-07-04T01:47:45.038Z,6.90
2018-07-04T01:50:19.034Z,8.25
2018-07-04T01:52:51.843Z,7.55
2018-07-04T01:55:24.852Z,8.35
2018-07-04T01:57:57.925Z,7.00
2018-07-04T02:00:30.999Z,8.38
2018-07-04T02:03:03.955Z,7.70
2018-07-04T02:05:36.853Z,10.30
2018-07-04T02:08:10.000Z,8.85
2018-07-04T02:10:43.108Z,8.48
2018-07-04T02:13:16.005Z,7.55
2018-07-04T02:15:48.957Z,9.70
2018-07-04T02:18:21.790Z,8.70
2018-07-04T02:20:54.765Z,9.83
2018-07-04T02:23:27.809Z,9.25
2018-07-04T02:26:00.891Z,9.03
2018-07-04T02:28:33.984Z,8.30
2018-07-04T02:31:06.971Z,7.78
2018-07-04T02:33:39.802Z,8.75
2018-07-04T02:36:12.711Z,7.92
2018-07-04T02:38:45.876Z,7.75
2018-07-04T02:41:18.802Z,7.28
2018-07-04T02:43:51.673Z,8.40
2018-07-04T02:46:30.175Z,7.62
2018-07-04T02:49:03.970Z,7.33
2018-07-04T02:51:36.854Z,8.43
2018-07-04T02:54:09.935Z,7.80
2018-07-04T02:56:43.005Z,8.10
2018-07-04T02:59:16.002Z,8.48
2018-07-04T03:01:49.021Z,7.37
2018-07-04T03:04:22.087Z,7.45
2018-07-04T03:06:55.074Z,8.23
2018-07-04T03:09:28.101Z,6.87
2018-07-04T03:12:05.018Z,7.03
2018-07-04T03:14:37.863Z,7.17
2018-07-04T03:17:10.729Z,8.10
2018-07-04T03:19:43.681Z,6.90
2018-07-04T03:22:17.054Z,7.60
2018-07-04T03:24:49.961Z,7.33
2018-07-04T03:27:22.966Z,7.72
2018-07-04T03:29:56.668Z,6.85
2018-07-04T03:32:29.623Z,7.33
2018-07-04T03:35:02.517Z,7.37
2018-07-04T03:37:36.081Z,6.45
2018-07-04T03:40:13.406Z,7.35
2018-07-04T03:42:46.419Z,6.60
2018-07-04T03:45:19.556Z,6.80
2018-07-04T04:00:57.478Z,6.87
2018-07-04T04:03:30.257Z,6.92
2018-07-04T04:06:03.260Z,6.75
2018-07-04T04:08:36.279Z,6.85
2018-07-04T04:11:09.242Z,7.00
2018-07-04T04:13:42.210Z,7.37
2018-07-04T04:16:19.616Z,6.83
2018-07-04T04:18:53.028Z,6.78
2018-07-04T04:21:25.824Z,6.65
2018-07-04T04:23:58.755Z,6.83
2018-07-04T04:26:31.632Z,6.60
2018-07-04T04:29:04.530Z,7.60
2018-07-04T04:31:37.510Z,7.28
2018-07-04T04:34:10.536Z,6.83
2018-07-04T04:36:43.715Z,7.05
2018-07-04T04:39:16.622Z,6.85
2018-07-04T04:41:49.414Z,6.90
2018-07-04T04:44:22.437Z,8.00
2018-07-04T04:46:55.637Z,7.67
2018-07-04T04:49:28.519Z,7.50
2018-07-04T04:52:01.445Z,8.38
2018-07-04T04:54:34.348Z,8.43
2018-07-04T04:57:07.446Z,9.40
2018-07-04T04:59:40.518Z,9.65
2018-07-04T05:02:13.565Z,8.25
2018-07-04T05:04:46.635Z,9.63
2018-07-04T05:07:19.596Z,7.00
2018-07-04T05:09:52.551Z,7.00
2018-07-04T05:12:25.667Z,8.50
2018-07-04T05:14:58.773Z,7.03
2018-07-04T05:17:31.753Z,7.90
2018-07-04T05:20:04.806Z,8.80
2018-07-04T05:22:37.701Z,8.67
2018-07-04T05:25:10.663Z,9.47
2018-07-04T05:27:43.595Z,7.35
2018-07-04T05:30:16.563Z,7.20
2018-07-04T05:32:49.579Z,8.77
2018-07-04T05:35:22.578Z,8.13
2018-07-04T05:37:55.836Z,8.67
2018-07-04T05:40:28.749Z,8.30
2018-07-04T05:43:01.666Z,7.93
2018-07-04T05:45:34.770Z,8.53
2018-07-04T05:48:07.774Z,7.87
2018-07-04T05:50:40.676Z,7.00
2018-07-04T05:53:13.740Z,8.10
2018-07-04T05:55:46.688Z,7.90
2018-07-04T05:58:19.563Z,6.87
2018-07-04T06:00:52.505Z,6.43
2018-07-04T06:03:25.398Z,7.67
2018-07-04T06:05:58.330Z,6.50
2018-07-04T06:08:31.378Z,7.60
2018-07-04T06:11:04.184Z,6.87
2018-07-04T06:13:37.026Z,7.10
2018-07-04T06:16:10.055Z,7.40
2018-07-04T06:18:42.873Z,7.63
2018-07-04T06:21:15.882Z,6.53
2018-07-04T06:23:48.861Z,6.10
2018-07-04T06:26:21.709Z,6.40
2018-07-04T06:28:54.460Z,6.53
2018-07-04T06:31:27.332Z,6.37
2018-07-04T06:34:00.484Z,5.50
2018-07-04T06:36:33.463Z,5.60
2018-07-04T06:39:00.170Z,5.30
2018-07-04T06:41:26.881Z,5.27
2018-07-04T06:43:53.560Z,5.20
2018-07-04T06:46:20.259Z,5.20
2018-07-04T06:48:46.971Z,4.80
2018-07-04T06:51:13.666Z,4.80
2018-07-04T06:53:40.357Z,4.90
2018-07-04T06:56:07.042Z,4.60
2018-07-04T06:58:33.759Z,4.97
2018-07-04T07:01:00.510Z,5.77
2018-07-04T07:03:33.275Z,5.50
2018-07-04T07:06:06.370Z,5.20
2018-07-04T07:08:39.411Z,5.37
2018-07-04T07:11:12.283Z,5.67
2018-07-04T07:13:45.074Z,5.67
2018-07-04T07:16:17.994Z,4.97
2018-07-04T07:18:50.988Z,5.70
2018-07-04T07:21:23.999Z,5.00
2018-07-04T07:23:57.007Z,5.27
2018-07-04T07:26:29.826Z,6.00
2018-07-04T07:29:02.702Z,4.83
2018-07-04T07:31:35.446Z,4.67
2018-07-04T07:34:08.796Z,5.30
2018-07-04T07:36:41.607Z,5.00
2018-07-04T07:39:14.310Z,4.70
2018-07-04T07:41:47.136Z,3.77
2018-07-04T07:44:19.934Z,4.53
2018-07-04T07:46:52.692Z,4.23
2018-07-04T07:49:25.520Z,4.30
2018-07-04T07:51:58.390Z,4.03
2018-07-04T07:54:31.142Z,4.60
2018-07-04T07:57:04.099Z,3.67
2018-07-04T07:59:37.202Z,4.50
2018-07-04T08:02:10.308Z,3.90
2018-07-04T08:04:43.259Z,4.57
2018-07-04T08:07:15.990Z,4.00
2018-07-04T08:09:48.783Z,4.90
2018-07-04T08:12:21.798Z,4.23
2018-07-04T08:14:54.684Z,4.27
2018-07-04T08:17:27.546Z,3.23
2018-07-04T08:20:00.446Z,3.60
2018-07-04T08:22:33.396Z,3.70
2018-07-04T08:25:06.393Z,4.50
2018-07-04T08:27:39.180Z,3.77
2018-07-04T08:30:11.896Z,3.47
2018-07-04T08:32:44.675Z,3.30
2018-07-04T08:35:17.407Z,3.90
2018-07-04T08:37:50.186Z,4.03
2018-07-04T08:40:22.992Z,4.03
2018-07-04T08:42:55.763Z,3.70
2018-07-04T08:45:28.682Z,4.50
2018-07-04T08:48:01.579Z,4.50
2018-07-04T08:50:34.523Z,3.87
2018-07-04T08:53:07.507Z,4.43
2018-07-04T08:55:40.377Z,4.33
2018-07-04T08:58:13.444Z,4.47
2018-07-04T09:00:46.455Z,4.63
2018-07-04T09:03:19.342Z,4.20
2018-07-04T09:05:52.154Z,4.50
2018-07-04T09:08:25.095Z,4.13
2018-07-04T09:10:57.897Z,4.20
2018-07-04T09:13:30.759Z,4.20
2018-07-04T09:16:03.797Z,4.70
2018-07-04T09:18:36.660Z,4.80
2018-07-04T09:21:09.710Z,3.97
2018-07-04T09:23:42.695Z,4.60
2018-07-04T09:26:15.507Z,3.83
2018-07-04T09:28:48.210Z,4.00
2018-07-04T09:31:21.065Z,4.40
2018-07-04T09:33:54.008Z,5.00
2018-07-04T09:36:26.979Z,4.40
2018-07-04T09:38:59.985Z,4.07
2018-07-04T09:41:32.742Z,4.63
2018-07-04T09:44:05.556Z,4.00
2018-07-04T09:46:38.432Z,4.23
2018-07-04T09:49:11.403Z,4.90
2018-07-04T09:51:44.345Z,3.90
2018-07-04T09:54:17.130Z,3.73
2018-07-04T09:56:50.044Z,4.30
2018-07-04T09:59:22.847Z,4.50
2018-07-04T10:01:55.635Z,4.13
2018-07-04T10:04:28.643Z,3.40
2018-07-04T10:07:01.470Z,3.70
2018-07-04T10:09:34.342Z,4.00
2018-07-04T10:12:07.331Z,3.50
2018-07-04T10:14:40.204Z,3.20
2018-07-04T10:17:13.018Z,2.63
2018-07-04T10:19:45.936Z,3.13
2018-07-04T10:22:18.901Z,3.40
2018-07-04T10:24:51.787Z,3.30
2018-07-04T10:27:24.614Z,3.87
2018-07-04T10:29:57.492Z,3.40
2018-07-04T10:32:30.475Z,3.17
2018-07-04T10:35:03.519Z,3.30
2018-07-04T10:37:36.401Z,3.10
2018-07-04T10:40:09.422Z,3.60
2018-07-04T10:42:42.306Z,3.40
2018-07-04T10:45:15.194Z,4.00
2018-07-04T10:47:47.998Z,3.57
2018-07-04T10:50:20.723Z,3.83
2018-07-04T10:52:53.573Z,4.03
2018-07-04T10:55:26.579Z,3.10
2018-07-04T10:57:59.397Z,3.07
2018-07-04T11:00:32.182Z,3.77
2018-07-04T11:03:05.219Z,3.40
2018-07-04T11:05:38.185Z,3.60
2018-07-04T11:08:11.163Z,3.70
2018-07-04T11:10:44.122Z,3.73
2018-07-04T11:13:17.048Z,4.07
2018-07-04T11:15:49.890Z,4.03
2018-07-04T11:18:22.710Z,3.57
2018-07-04T11:20:56.154Z,4.07
2018-07-04T11:23:29.223Z,4.40
2018-07-04T11:26:02.183Z,3.60
2018-07-04T11:28:35.181Z,3.87
2018-07-04T11:31:08.062Z,3.50
2018-07-04T11:33:41.019Z,5.20
2018-07-04T11:36:13.892Z,4.80
2018-07-04T11:38:46.822Z,3.93
2018-07-04T11:41:19.754Z,4.83
2018-07-04T11:43:52.947Z,4.77
2018-07-04T11:46:19.647Z,5.53
2018-07-04T11:48:46.378Z,5.30
2018-07-04T11:51:13.101Z,4.50
2018-07-04T11:53:39.826Z,4.57
2018-07-04T11:56:06.547Z,5.53
2018-07-04T11:58:33.230Z,5.60
2018-07-04T12:00:59.941Z,5.77
2018-07-04T12:03:26.644Z,6.90
2018-07-04T12:05:59.705Z,4.40
2018-07-04T12:08:26.446Z,4.23
2018-07-04T12:10:53.630Z,5.20
2018-07-04T12:13:21.327Z,4.23
2018-07-04T12:15:49.120Z,6.20
2018-07-04T12:18:15.803Z,6.47
2018-07-04T12:20:43.504Z,3.50
2018-07-04T12:23:10.787Z,6.00
2018-07-04T12:25:37.801Z,4.97
2018-07-04T12:28:04.513Z,4.33
2018-07-04T12:30:31.215Z,4.40
2018-07-04T12:32:57.921Z,3.30
2018-07-04T12:35:24.639Z,4.20
2018-07-04T12:37:55.675Z,4.70
2018-07-04T12:40:22.418Z,4.07
2018-07-04T12:42:49.130Z,3.40
2018-07-04T12:45:15.867Z,3.83
2018-07-04T12:47:42.582Z,4.50
2018-07-04T12:50:15.662Z,4.20
2018-07-04T12:52:42.401Z,3.77
2018-07-04T12:55:15.480Z,4.60
2018-07-04T12:57:48.302Z,4.90
2018-07-04T13:00:21.154Z,4.30
2018-07-04T13:02:54.264Z,3.90
2018-07-04T13:05:27.364Z,3.10
2018-07-04T13:08:00.122Z,3.40
2018-07-04T13:10:33.013Z,3.87
2018-07-04T13:13:05.803Z,3.83
2018-07-04T13:15:38.711Z,3.57
2018-07-04T13:18:11.622Z,3.60
2018-07-04T13:20:44.488Z,3.60
2018-07-04T13:23:17.392Z,3.60
2018-07-04T13:25:50.457Z,3.27
2018-07-04T13:28:23.267Z,3.70
2018-07-04T13:30:56.281Z,3.17
2018-07-04T13:33:29.180Z,3.00
2018-07-04T13:36:02.107Z,4.20
2018-07-04T13:38:35.124Z,3.43
2018-07-04T13:41:08.088Z,3.43
2018-07-04T13:43:41.106Z,3.30
2018-07-04T13:46:13.985Z,3.80
2018-07-04T13:48:46.724Z,3.57
2018-07-04T13:51:19.792Z,3.37
2018-07-04T13:53:52.568Z,3.30
2018-07-04T13:56:25.428Z,3.70
2018-07-04T13:58:58.193Z,3.50
2018-07-04T14:01:31.022Z,3.60
2018-07-04T14:04:03.831Z,3.77
2018-07-04T14:06:36.605Z,3.60
2018-07-04T14:09:09.452Z,3.50
2018-07-04T14:11:42.198Z,3.57
2018-07-04T14:14:15.138Z,4.13
2018-07-04T14:16:47.856Z,4.37
2018-07-04T14:19:20.850Z,3.90
2018-07-04T14:21:53.826Z,4.00
2018-07-04T14:24:26.718Z,4.30
2018-07-04T14:26:59.638Z,3.90
2018-07-04T14:29:32.708Z,4.03
2018-07-04T14:32:05.904Z,3.77
2018-07-04T14:34:38.899Z,4.03
2018-07-04T14:37:11.803Z,4.27
2018-07-04T14:39:44.594Z,3.60
2018-07-04T14:42:17.821Z,4.83
2018-07-04T14:44:50.642Z,4.83
2018-07-04T14:47:23.653Z,4.17
2018-07-04T14:49:56.476Z,4.47
2018-07-04T14:52:29.217Z,4.17
2018-07-04T14:55:02.106Z,4.70
2018-07-04T14:57:35.026Z,4.10
2018-07-04T15:00:08.018Z,4.00
2018-07-04T15:02:40.932Z,4.30
2018-07-04T15:05:13.863Z,4.50
2018-07-04T15:07:46.877Z,4.27
2018-07-04T15:10:19.887Z,3.70
2018-07-04T15:12:53.047Z,3.70
2018-07-04T15:15:26.900Z,3.53
2018-07-04T15:17:59.766Z,3.67
2018-07-04T15:20:32.751Z,3.40
2018-07-04T15:23:05.675Z,3.63
2018-07-04T15:25:38.622Z,3.07
2018-07-04T15:28:11.590Z,3.53
2018-07-04T15:30:44.524Z,3.90
2018-07-04T15:33:17.624Z,3.50
2018-07-04T15:35:50.585Z,3.07
2018-07-04T15:38:23.606Z,3.00
2018-07-04T15:40:56.601Z,3.60
2018-07-04T15:43:29.533Z,3.13
2018-07-04T15:46:02.523Z,3.23
2018-07-04T15:48:35.445Z,3.50
2018-07-04T15:51:08.444Z,3.73
2018-07-04T15:53:41.561Z,3.03
2018-07-04T15:56:14.482Z,3.30
2018-07-04T15:58:47.381Z,3.10
2018-07-04T16:01:20.384Z,3.20
2018-07-04T16:03:53.400Z,3.27
2018-07-04T16:06:26.309Z,3.47
2018-07-04T16:08:59.143Z,3.43
2018-07-04T16:11:32.094Z,3.67
2018-07-04T16:14:05.207Z,3.00
2018-07-04T16:16:38.048Z,3.43
2018-07-04T16:19:10.943Z,3.53
2018-07-04T16:21:43.767Z,3.70
2018-07-04T16:24:16.790Z,3.63
2018-07-04T16:26:49.708Z,2.97
2018-07-04T16:29:23.347Z,3.33
2018-07-04T16:31:56.307Z,3.10
2018-07-04T16:34:29.225Z,3.33
2018-07-04T16:37:02.248Z,3.80
2018-07-04T16:39:35.254Z,3.00
2018-07-04T16:42:08.176Z,2.80
2018-07-04T16:44:41.032Z,3.17
2018-07-04T16:47:14.131Z,2.77
2018-07-04T16:49:46.987Z,3.10
2018-07-04T16:52:20.282Z,3.40
2018-07-04T16:54:53.366Z,2.90
2018-07-04T16:57:26.296Z,2.90
2018-07-04T16:59:59.453Z,2.83
2018-07-04T17:02:34.522Z,3.07
2018-07-04T17:05:07.406Z,3.00
2018-07-04T17:07:40.357Z,2.87
2018-07-04T17:10:13.247Z,3.03
2018-07-04T17:12:46.101Z,2.77
2018-07-04T17:15:19.052Z,2.60
2018-07-04T17:17:52.071Z,2.97
2018-07-04T17:20:25.190Z,3.20
2018-07-04T17:22:58.159Z,2.83
2018-07-04T17:25:31.252Z,2.77
2018-07-04T17:28:04.598Z,2.93
2018-07-04T17:30:37.635Z,3.20
2018-07-04T17:33:10.624Z,2.77
2018-07-04T17:35:44.096Z,3.23
2018-07-04T17:38:17.626Z,3.00
2018-07-04T17:40:50.945Z,3.53
2018-07-04T17:53:08.920Z,2.93
2018-07-04T17:55:41.937Z,3.10
2018-07-04T17:58:15.014Z,3.47
2018-07-04T18:00:48.203Z,3.80
2018-07-04T18:03:21.063Z,3.90
2018-07-04T18:05:54.253Z,4.93
2018-07-04T18:08:27.319Z,4.77
2018-07-04T18:11:00.524Z,4.93
2018-07-04T18:13:33.407Z,4.40
2018-07-04T18:16:06.420Z,5.13
2018-07-04T18:18:39.550Z,4.20
2018-07-04T18:21:18.160Z,4.03
2018-07-04T18:23:51.199Z,4.07
2018-07-04T18:26:24.235Z,8.47
2018-07-04T18:28:57.367Z,5.60
2018-07-04T18:31:30.463Z,4.60
2018-07-04T18:34:03.441Z,4.30
2018-07-04T18:36:37.108Z,4.60
2018-07-04T18:39:10.058Z,3.83
2018-07-04T18:41:43.075Z,4.03
2018-07-04T18:44:15.892Z,4.70
2018-07-04T18:46:48.997Z,5.00
2018-07-04T18:49:22.031Z,4.73
2018-07-04T18:51:55.144Z,4.90
2018-07-04T18:54:28.203Z,4.60
2018-07-04T18:57:01.199Z,4.40
2018-07-04T18:59:34.321Z,4.83
2018-07-04T19:02:07.445Z,5.40
2018-07-04T19:04:40.533Z,4.77
2018-07-04T19:07:13.465Z,5.30
2018-07-04T19:09:46.664Z,5.10
2018-07-04T19:12:19.642Z,5.60
2018-07-04T19:14:52.573Z,5.10
2018-07-04T19:17:25.651Z,4.83
2018-07-04T19:19:58.706Z,5.47
2018-07-04T19:22:31.619Z,4.47
2018-07-04T19:34:49.717Z,4.87
2018-07-04T19:37:22.924Z,5.07
2018-07-04T19:39:56.001Z,5.10
2018-07-04T19:42:29.003Z,5.10
2018-07-04T19:45:02.346Z,5.50
2018-07-04T19:47:35.345Z,4.97
2018-07-04T19:50:08.826Z,5.23
2018-07-04T19:52:41.746Z,4.50
2018-07-04T19:55:15.575Z,4.97
2018-07-04T19:57:48.633Z,4.80
2018-07-04T20:00:22.368Z,5.00
2018-07-04T20:02:55.241Z,5.30
2018-07-04T20:15:13.288Z,5.63
2018-07-04T20:17:47.739Z,5.50
2018-07-04T20:20:26.411Z,5.47
2018-07-04T20:22:59.411Z,6.20
2018-07-04T20:25:32.449Z,5.67
2018-07-04T20:37:50.523Z,5.30
2018-07-04T20:40:24.319Z,6.73
2018-07-04T20:43:01.620Z,7.30
2018-07-04T20:45:34.509Z,7.47
2018-07-04T20:48:07.622Z,6.30
2018-07-04T20:50:40.556Z,6.77
2018-07-04T20:53:13.732Z,6.03
2018-07-04T20:55:46.684Z,6.13
2018-07-04T20:58:19.652Z,7.73
2018-07-04T21:00:53.163Z,7.20
2018-07-04T21:03:26.164Z,6.93
2018-07-04T21:05:59.272Z,6.10
2018-07-04T21:08:32.212Z,6.30
2018-07-04T21:11:05.409Z,6.37
2018-07-04T21:13:38.305Z,6.73
2018-07-04T21:16:11.394Z,6.60
2018-07-04T21:18:44.252Z,6.10
2018-07-04T21:21:17.570Z,7.30
2018-07-04T21:23:50.581Z,7.77
2018-07-04T21:26:24.115Z,6.87
2018-07-04T21:29:00.991Z,6.73
2018-07-04T21:31:34.036Z,7.10
2018-07-04T21:34:07.802Z,7.60
2018-07-04T21:36:41.063Z,8.00
2018-07-04T21:39:13.920Z,7.50
2018-07-04T21:41:47.013Z,7.50
2018-07-04T21:44:19.934Z,6.93
2018-07-04T21:46:53.013Z,7.70
2018-07-04T21:49:30.861Z,7.40
2018-07-04T21:52:08.301Z,7.10
2018-07-04T21:54:41.383Z,7.27
2018-07-04T21:57:15.006Z,7.80
2018-07-04T22:09:38.784Z,6.50
2018-07-04T22:12:12.601Z,8.30
2018-07-04T22:14:45.685Z,7.40
2018-07-04T22:17:18.651Z,7.40
2018-07-04T22:19:51.718Z,7.80
2018-07-04T22:22:29.062Z,8.03
2018-07-04T22:25:02.861Z,7.70
2018-07-04T22:27:35.833Z,8.07
2018-07-04T22:30:08.785Z,9.40
2018-07-04T22:32:41.814Z,8.63
2018-07-04T22:35:14.865Z,7.83
2018-07-04T22:37:47.875Z,8.70
2018-07-04T22:40:25.231Z,8.93
2018-07-04T22:42:58.328Z,8.03
2018-07-04T22:45:36.007Z,7.67
2018-07-04T22:48:09.026Z,8.73
2018-07-04T22:50:42.873Z,8.70
2018-07-04T22:53:15.758Z,7.63
2018-07-04T22:55:48.976Z,8.37
2018-07-04T22:58:22.043Z,10.13
2018-07-04T23:00:55.292Z,8.90
2018-07-04T23:03:28.248Z,8.70
2018-07-04T23:06:01.311Z,8.23
2018-07-04T23:08:34.353Z,8.90
2018-07-04T23:11:07.672Z,8.43
2018-07-04T23:13:44.561Z,7.90
2018-07-04T23:16:17.535Z,7.53
2018-07-04T23:18:50.367Z,7.30
2018-07-04T23:21:23.318Z,7.17
2018-07-04T23:23:57.386Z,7.00
2018-07-04T23:26:32.125Z,7.33
2018-07-04T23:29:04.983Z,7.37
2018-07-04T23:31:38.783Z,6.90
2018-07-04T23:34:11.746Z,6.80
2018-07-04T23:36:44.821Z,7.80
2018-07-04T23:39:17.817Z,8.30
2018-07-04T23:41:50.768Z,6.93
2018-07-04T23:44:25.229Z,6.90
2018-07-04T23:46:58.049Z,7.43
2018-07-04T23:49:31.946Z,8.37
2018-07-04T23:52:04.951Z,7.97
2018-07-04T23:54:38.011Z,7.60
2018-07-04T23:57:11.634Z,7.60
2018-07-04T23:59:44.713Z,8.63
